createdAt,value
2018-06-21T00:05:16.298Z,11.20
2018-06-21T00:15:17.585Z,11.07
2018-06-21T00:25:18.876Z,10.30
2018-06-21T00:35:20.174Z,11.63
2018-06-21T00:45:21.459Z,12.37
2018-06-21T00:55:22.746Z,12.83
2018-06-21T01:05:24.015Z,11.70
2018-06-21T01:15:25.310Z,12.70
2018-06-21T01:25:26.589Z,12.87
2018-06-21T01:35:27.910Z,15.17
2018-06-21T01:45:29.953Z,12.20
2018-06-21T01:55:31.227Z,12.53
2018-06-21T02:05:33.260Z,12.93
2018-06-21T02:15:34.540Z,13.53
2018-06-21T02:25:35.826Z,15.57
2018-06-21T02:35:37.900Z,14.23
2018-06-21T02:45:39.202Z,12.73
2018-06-21T02:55:40.507Z,13.70
2018-06-21T03:05:41.818Z,13.73
2018-06-21T03:15:43.111Z,15.00
2018-06-21T03:25:44.398Z,14.13
2018-06-21T03:35:45.714Z,13.80
2018-06-21T03:45:47.768Z,14.10
2018-06-21T03:55:49.043Z,13.63
2018-06-21T04:16:01.146Z,13.73
2018-06-21T04:26:02.414Z,13.27
2018-06-21T04:36:03.686Z,16.30
2018-06-21T04:46:04.962Z,13.23
2018-06-21T04:56:06.264Z,12.30
2018-06-21T05:06:07.599Z,13.63
2018-06-21T05:16:08.882Z,11.57
2018-06-21T05:26:10.164Z,12.00
2018-06-21T05:36:11.453Z,11.00
2018-06-21T05:46:12.725Z,11.80
2018-06-21T05:56:13.999Z,11.10
2018-06-21T06:06:16.034Z,13.83
2018-06-21T06:16:17.299Z,12.63
2018-06-21T06:26:18.569Z,11.43
2018-06-21T06:36:19.841Z,13.10
2018-06-21T06:46:21.934Z,11.93
2018-06-21T06:56:23.169Z,8.15
2018-06-21T07:06:24.439Z,8.98
2018-06-21T07:16:25.710Z,8.13
2018-06-21T07:26:27.743Z,10.95
2018-06-21T07:36:29.011Z,8.05
2018-06-21T07:46:31.036Z,7.82
2018-06-21T07:56:32.304Z,7.87
2018-06-21T08:06:33.589Z,7.32
2018-06-21T08:16:34.859Z,6.32
2018-06-21T08:26:36.134Z,6.57
2018-06-21T08:36:37.421Z,7.25
2018-06-21T08:46:38.714Z,6.55
2018-06-21T08:56:40.000Z,8.48
2018-06-21T09:06:42.047Z,8.80
2018-06-21T09:16:43.324Z,10.05
2018-06-21T09:26:44.591Z,8.05
2018-06-21T09:36:46.627Z,8.65
2018-06-21T09:46:47.897Z,8.93
2018-06-21T09:56:49.912Z,7.93
2018-06-21T10:06:51.914Z,9.90
2018-06-21T10:16:53.178Z,7.70
2018-06-21T10:26:54.414Z,8.90
2018-06-21T10:36:56.423Z,7.65
2018-06-21T10:46:57.711Z,8.82
2018-06-21T10:56:59.754Z,8.25
2018-06-21T11:07:01.761Z,7.62
2018-06-21T11:17:03.827Z,7.75
2018-06-21T11:27:05.792Z,8.77
2018-06-21T11:37:07.039Z,9.80
2018-06-21T11:47:08.282Z,8.00
2018-06-21T11:57:09.530Z,7.53
2018-06-21T12:07:10.805Z,6.80
2018-06-21T12:17:12.816Z,8.15
2018-06-21T12:27:14.050Z,7.18
2018-06-21T12:37:15.306Z,7.30
2018-06-21T12:47:16.581Z,8.05
2018-06-21T12:57:17.823Z,7.43
2018-06-21T13:07:19.105Z,7.05
2018-06-21T13:27:26.902Z,9.00
2018-06-21T13:37:28.949Z,10.27
2018-06-21T13:47:30.217Z,8.75
2018-06-21T13:57:31.495Z,8.80
2018-06-21T14:07:32.782Z,7.78
2018-06-21T14:17:34.810Z,8.93
2018-06-21T15:08:04.187Z,8.73
2018-06-21T15:18:05.431Z,8.65
2018-06-21T15:28:06.688Z,9.00
2018-06-21T15:38:08.709Z,8.82
2018-06-21T15:48:10.426Z,8.85
2018-06-21T16:08:19.120Z,10.52
2018-06-21T16:38:34.169Z,10.50
2018-06-21T16:48:35.544Z,7.95
2018-06-21T16:58:36.819Z,6.20
2018-06-21T17:08:38.057Z,3.50
2018-06-21T17:18:39.303Z,3.30
2018-06-21T17:28:45.376Z,12.00
2018-06-21T17:38:46.614Z,5.07
2018-06-21T17:58:55.415Z,13.70
2018-06-21T18:08:56.779Z,19.87
2018-06-21T18:18:58.026Z,22.07
2018-06-21T18:28:59.363Z,19.33
2018-06-21T18:39:01.311Z,13.87
2018-06-21T18:49:03.337Z,8.00
2018-06-21T18:59:04.587Z,9.07
2018-06-21T19:29:18.824Z,11.50
2018-06-21T19:39:20.090Z,9.90
2018-06-21T19:49:21.371Z,7.03
2018-06-21T20:09:29.955Z,8.27
2018-06-21T20:19:31.207Z,8.93
2018-06-21T20:29:32.545Z,7.53
2018-06-21T20:39:33.827Z,8.30
2018-06-21T20:49:35.090Z,7.63
2018-06-21T20:59:36.342Z,8.73
2018-06-21T21:09:38.384Z,8.20
2018-06-21T21:19:39.660Z,7.37
2018-06-21T21:29:41.710Z,7.27
2018-06-21T21:39:42.998Z,8.60
2018-06-21T21:49:48.130Z,7.30
2018-06-21T21:59:49.395Z,6.13
2018-06-21T22:09:50.663Z,7.30
2018-06-21T22:19:51.926Z,9.33
2018-06-21T22:29:53.181Z,7.13
2018-06-21T22:39:54.451Z,7.50
2018-06-21T22:49:55.721Z,8.37
2018-06-21T22:59:57.012Z,7.10
2018-06-21T23:09:59.075Z,8.23
2018-06-21T23:20:02.483Z,10.43
2018-06-21T23:30:04.532Z,8.47
2018-06-21T23:40:05.821Z,7.97
2018-06-21T23:50:07.177Z,9.40
